Time;durP1;ratioP1;P1;durP2;ratioP2;P2;SDS_P1;SDS_P2;PMS_P1;PMS_P2;Temp;Humidity;BMP_temperature;BMP_pressure;BME280_temperature;BME280_humidity;BME280_pressure;Samples;Min_cycle;Max_cycle;Signal;HPM_P1;HPM_P2
2021/06/07 00:00:17;;;;;;;14.43;10.20;;;21.60;63.70;;;;;;20902547;28;20021;-20
2021/06/07 00:10:19;;;;;;;15.02;9.88;;;21.60;62.60;;;;;;20903701;28;20025;-20
2021/06/07 00:20:28;;;;;;;10.27;9.27;;;21.50;62.50;;;;;;20902105;28;20040;-20
2021/06/07 00:30:28;;;;;;;13.50;10.50;;;21.40;61.70;;;;;;20908012;28;20075;-20
2021/06/07 00:40:29;;;;;;;12.52;9.50;;;21.40;62.10;;;;;;20936787;28;20025;-20
2021/06/07 00:50:36;;;;;;;11.93;10.73;;;21.30;62.90;;;;;;20938241;28;20032;-20
2021/06/07 01:00:40;;;;;;;10.88;9.63;;;21.40;62.30;;;;;;20932184;28;20033;-20
2021/06/07 01:10:41;;;;;;;12.82;9.20;;;21.30;62.30;;;;;;20930761;28;20029;-33
2021/06/07 01:20:43;;;;;;;10.25;9.25;;;21.30;62.20;;;;;;20916692;28;20025;-20
2021/06/07 01:30:46;;;;;;;10.25;8.52;;;21.30;61.90;;;;;;20913139;28;20025;-20
2021/06/07 01:40:55;;;;;;;11.07;8.52;;;21.30;61.70;;;;;;20912066;28;20112;-20
2021/06/07 01:50:58;;;;;;;9.93;7.85;;;21.30;61.50;;;;;;20911754;28;20036;-20
2021/06/07 02:01:02;;;;;;;10.30;9.27;;;21.30;61.50;;;;;;20913459;28;20108;-20
2021/06/07 02:11:13;;;;;;;10.30;8.88;;;21.30;60.40;;;;;;20909882;28;20033;-20
2021/06/07 02:21:19;;;;;;;13.70;9.43;;;21.20;60.30;;;;;;20909413;28;20072;-20
2021/06/07 02:31:21;;;;;;;13.48;10.77;;;21.10;60.00;;;;;;20909187;28;20473;-20
2021/06/07 02:41:23;;;;;;;12.93;10.00;;;21.10;60.20;;;;;;20908810;28;20075;-20
2021/06/07 02:51:24;;;;;;;13.15;9.75;;;21.10;60.50;;;;;;20906248;28;20017;-20
2021/06/07 03:01:24;;;;;;;11.43;9.55;;;21.20;60.40;;;;;;20905902;28;20536;-20
2021/06/07 03:11:25;;;;;;;13.77;11.80;;;21.10;60.10;;;;;;20905267;28;20020;-20
2021/06/07 03:21:26;;;;;;;9.87;8.87;;;21.10;60.30;;;;;;20904491;28;20087;-20
2021/06/07 03:31:26;;;;;;;10.48;8.70;;;21.10;60.50;;;;;;20903188;28;20943;-20
2021/06/07 03:41:27;;;;;;;9.27;8.25;;;21.20;61.00;;;;;;20902979;28;20044;-20
2021/06/07 03:51:27;;;;;;;13.27;11.13;;;21.10;60.20;;;;;;20902439;28;20466;-19
2021/06/07 04:01:28;;;;;;;12.18;10.18;;;21.10;60.40;;;;;;20902005;28;20061;-19
2021/06/07 04:11:28;;;;;;;12.85;9.88;;;21.10;60.20;;;;;;20901613;28;20438;-20
2021/06/07 04:21:29;;;;;;;13.98;10.68;;;21.10;60.00;;;;;;20901597;28;20404;-20
2021/06/07 04:31:30;;;;;;;11.88;10.02;;;21.10;60.00;;;;;;20901174;28;20536;-19
2021/06/07 04:41:30;;;;;;;12.70;9.45;;;21.10;60.10;;;;;;20900410;28;20452;-20
2021/06/07 04:51:31;;;;;;;12.90;9.68;;;21.00;60.10;;;;;;20900961;28;20075;-19
2021/06/07 05:01:31;;;;;;;12.32;11.02;;;21.00;60.00;;;;;;20900396;28;20480;-19
2021/06/07 05:11:32;;;;;;;14.43;9.50;;;21.00;60.10;;;;;;20899524;28;20036;-19
2021/06/07 05:21:33;;;;;;;13.07;10.80;;;21.00;60.00;;;;;;20918674;28;20045;-20
2021/06/07 05:31:33;;;;;;;11.88;10.25;;;21.00;60.20;;;;;;20877878;28;20056;-21
2021/06/07 05:41:34;;;;;;;16.40;10.23;;;20.90;60.20;;;;;;20912760;28;20447;-20
2021/06/07 05:51:34;;;;;;;11.20;10.10;;;20.90;60.20;;;;;;20912747;28;20031;-20
2021/06/07 06:01:35;;;;;;;17.02;12.52;;;20.90;60.10;;;;;;20911410;28;20025;-21
2021/06/07 06:11:57;;;;;;;14.88;11.27;;;21.00;60.00;;;;;;20910574;28;20473;-20
2021/06/07 06:22:04;;;;;;;12.25;10.68;;;21.00;59.50;;;;;;20905761;28;20037;-21
2021/06/07 06:32:06;;;;;;;16.50;11.93;;;20.90;59.40;;;;;;20899987;28;20033;-21
2021/06/07 06:42:08;;;;;;;13.30;11.85;;;20.90;59.00;;;;;;20906921;28;20032;-20
2021/06/07 06:52:08;;;;;;;11.38;10.27;;;20.80;59.00;;;;;;20907202;28;20041;-20
2021/06/07 07:02:09;;;;;;;15.30;12.73;;;20.70;59.20;;;;;;20905772;28;20039;-20
2021/06/07 07:12:11;;;;;;;14.65;12.27;;;20.70;59.10;;;;;;20891577;28;20599;-21
2021/06/07 07:22:13;;;;;;;15.60;12.30;;;20.70;59.10;;;;;;20902675;28;20033;-21
2021/06/07 07:32:14;;;;;;;12.95;11.65;;;20.70;59.30;;;;;;20886780;28;20477;-20
2021/06/07 07:42:14;;;;;;;14.52;11.73;;;20.70;59.60;;;;;;20901115;28;20025;-21
2021/06/07 07:52:15;;;;;;;20.38;13.43;;;20.70;59.20;;;;;;20901268;28;20558;-20
2021/06/07 08:02:16;;;;;;;14.13;12.65;;;20.70;59.20;;;;;;20893053;28;20033;-20
2021/06/07 08:12:16;;;;;;;13.68;12.23;;;20.70;59.00;;;;;;20901305;28;20029;-20
2021/06/07 08:22:18;;;;;;;17.00;12.52;;;20.60;59.40;;;;;;20899217;28;20533;-20
2021/06/07 08:32:19;;;;;;;13.02;11.63;;;20.70;59.50;;;;;;20900702;28;20060;-20
2021/06/07 08:42:19;;;;;;;14.30;10.97;;;20.80;59.50;;;;;;20884943;28;20029;-20
2021/06/07 08:52:20;;;;;;;15.00;10.48;;;20.80;59.70;;;;;;20909088;28;20887;-21
2021/06/07 09:02:32;;;;;;;12.88;11.63;;;20.80;59.70;;;;;;20934091;28;20543;-20
2021/06/07 09:12:33;;;;;;;14.98;13.38;;;20.80;59.90;;;;;;20936549;28;20116;-21
2021/06/07 09:22:34;;;;;;;16.02;12.95;;;20.80;59.90;;;;;;20937774;28;20251;-20
2021/06/07 09:32:35;;;;;;;16.55;13.00;;;20.80;60.30;;;;;;20928075;28;20328;-20
2021/06/07 09:42:36;;;;;;;18.83;14.80;;;20.80;60.30;;;;;;20912440;28;20052;-20
2021/06/07 09:52:44;;;;;;;18.25;14.52;;;20.80;60.30;;;;;;20912015;28;20021;-20
2021/06/07 10:02:45;;;;;;;18.70;16.02;;;20.80;60.70;;;;;;20910540;28;20094;-20
2021/06/07 10:12:47;;;;;;;15.85;12.80;;;20.80;60.70;;;;;;20909818;28;20036;-20
2021/06/07 10:22:47;;;;;;;16.80;13.85;;;20.90;60.90;;;;;;20907943;28;20061;-20
2021/06/07 10:32:49;;;;;;;24.08;16.80;;;20.80;61.40;;;;;;20906608;28;20054;-20
2021/06/07 10:42:59;;;;;;;17.35;14.00;;;20.90;61.10;;;;;;20905583;28;20033;-20
2021/06/07 10:53:03;;;;;;;24.83;14.40;;;20.90;61.20;;;;;;20902939;28;20082;-20
2021/06/07 11:03:21;;;;;;;19.75;15.98;;;20.90;61.70;;;;;;20903712;28;20555;-20
2021/06/07 11:13:22;;;;;;;18.65;15.18;;;20.90;61.90;;;;;;20902396;28;20112;-19
2021/06/07 11:23:33;;;;;;;19.40;13.88;;;20.90;61.80;;;;;;20904010;28;20072;-20
2021/06/07 11:33:54;;;;;;;18.13;14.05;;;20.90;62.20;;;;;;20903238;28;20040;-21
2021/06/07 11:43:54;;;;;;;15.15;11.10;;;20.90;62.80;;;;;;20903531;28;20108;-19
2021/06/07 11:53:55;;;;;;;12.02;10.05;;;21.00;62.20;;;;;;20903338;28;20106;-19
2021/06/07 12:03:55;;;;;;;13.95;11.10;;;21.10;62.30;;;;;;20902607;28;20478;-19
2021/06/07 12:13:56;;;;;;;11.07;9.38;;;21.10;62.30;;;;;;20901954;28;20033;-19
2021/06/07 12:24:05;;;;;;;12.27;8.55;;;21.10;62.20;;;;;;20903560;28;20064;-19
2021/06/07 12:34:08;;;;;;;12.85;9.52;;;21.10;62.50;;;;;;20918364;28;20020;-19
2021/06/07 12:44:09;;;;;;;9.07;8.27;;;21.20;62.60;;;;;;20917396;28;20081;-20
2021/06/07 12:54:09;;;;;;;11.70;8.70;;;21.20;62.80;;;;;;20916770;28;20055;-19
2021/06/07 13:04:10;;;;;;;9.32;8.23;;;21.20;62.90;;;;;;20917139;28;20481;-20
2021/06/07 13:14:25;;;;;;;8.47;7.67;;;21.20;63.20;;;;;;20915738;28;20166;-20
2021/06/07 13:24:32;;;;;;;9.23;7.68;;;21.20;63.20;;;;;;20915438;28;20475;-19
2021/06/07 13:34:43;;;;;;;9.02;8.13;;;21.20;63.20;;;;;;20913304;28;20036;-19
2021/06/07 13:44:53;;;;;;;9.15;7.82;;;21.20;63.30;;;;;;20899986;28;20033;-19
2021/06/07 13:54:55;;;;;;;8.20;7.43;;;21.30;63.40;;;;;;20913187;28;20032;-20
2021/06/07 14:04:55;;;;;;;7.93;6.90;;;21.30;63.50;;;;;;20912025;28;20036;-19
2021/06/07 14:14:56;;;;;;;8.73;7.22;;;21.20;63.80;;;;;;20910766;28;20458;-21
2021/06/07 14:24:56;;;;;;;9.65;7.68;;;21.30;64.00;;;;;;20909852;28;20032;-20
2021/06/07 14:34:57;;;;;;;8.48;7.65;;;21.30;64.10;;;;;;20908820;28;20028;-20
2021/06/07 14:44:57;;;;;;;9.10;8.20;;;21.30;64.20;;;;;;20907945;28;20038;-20
2021/06/07 14:54:58;;;;;;;7.97;7.18;;;21.30;64.40;;;;;;20905898;28;20612;-20
2021/06/07 15:04:59;;;;;;;7.68;6.95;;;21.30;64.30;;;;;;20906368;28;20080;-21
2021/06/07 15:15:00;;;;;;;7.95;7.22;;;21.30;64.50;;;;;;20905235;28;20032;-20
2021/06/07 15:25:00;;;;;;;8.25;7.53;;;21.30;64.40;;;;;;20897893;28;20056;-20
2021/06/07 15:35:36;;;;;;;8.20;7.23;;;21.30;64.70;;;;;;20903880;28;20412;-20
2021/06/07 15:45:36;;;;;;;7.80;7.00;;;21.30;64.80;;;;;;20903260;28;21010;-20
2021/06/07 15:55:38;;;;;;;12.75;11.45;;;21.30;65.10;;;;;;20902759;28;20032;-20
2021/06/07 16:05:38;;;;;;;17.20;14.60;;;21.30;64.10;;;;;;20902539;28;20083;-20
2021/06/07 16:15:39;;;;;;;15.52;13.75;;;21.20;63.80;;;;;;20902854;28;20390;-19
2021/06/07 16:25:43;;;;;;;19.33;15.93;;;21.00;64.40;;;;;;20901842;28;20470;-20
2021/06/07 16:35:44;;;;;;;20.40;17.40;;;21.10;64.40;;;;;;20901067;28;20667;-20
2021/06/07 16:45:45;;;;;;;20.45;17.45;;;21.10;64.60;;;;;;20902475;28;20017;-20
2021/06/07 16:55:47;;;;;;;20.87;17.50;;;21.10;64.20;;;;;;20916294;28;20075;-20
2021/06/07 17:05:47;;;;;;;23.15;17.40;;;21.10;64.60;;;;;;20916920;28;20447;-20
2021/06/07 17:15:49;;;;;;;21.15;19.05;;;21.00;65.00;;;;;;20928470;28;20033;-19
2021/06/07 17:25:52;;;;;;;24.88;20.23;;;21.00;65.10;;;;;;20910665;28;20048;-20
2021/06/07 17:35:53;;;;;;;21.92;19.10;;;21.00;64.40;;;;;;20913756;28;20090;-21
2021/06/07 17:45:53;;;;;;;24.17;19.13;;;21.00;64.50;;;;;;20912420;28;20032;-19
2021/06/07 17:55:54;;;;;;;22.73;20.45;;;20.90;65.00;;;;;;20910940;28;20025;-19
2021/06/07 18:05:55;;;;;;;24.67;21.02;;;21.00;65.00;;;;;;20909296;28;20536;-21
2021/06/07 18:15:57;;;;;;;24.63;22.00;;;20.90;65.10;;;;;;20910523;28;20033;-20
2021/06/07 18:25:57;;;;;;;24.65;21.80;;;20.80;65.60;;;;;;20910343;28;20104;-20
2021/06/07 18:35:58;;;;;;;26.45;21.67;;;20.90;65.30;;;;;;20909672;28;20063;-21
2021/06/07 18:45:59;;;;;;;27.40;22.15;;;20.80;65.40;;;;;;20910910;28;20466;-20
2021/06/07 18:56:01;;;;;;;25.83;21.30;;;20.80;66.20;;;;;;20907936;28;20498;-19
2021/06/07 19:06:02;;;;;;;25.55;21.80;;;20.80;66.40;;;;;;20911326;28;20477;-19
2021/06/07 19:16:03;;;;;;;33.03;21.33;;;20.80;66.70;;;;;;20906328;28;20405;-21
2021/06/07 19:26:03;;;;;;;21.03;18.43;;;20.80;66.40;;;;;;20905713;28;20108;-20
2021/06/07 19:36:05;;;;;;;23.58;20.38;;;20.80;66.50;;;;;;20905520;28;20455;-21
2021/06/07 19:46:06;;;;;;;27.35;20.17;;;20.80;65.80;;;;;;20905791;28;20100;-18
2021/06/07 19:56:08;;;;;;;23.00;20.50;;;20.80;66.40;;;;;;20905520;28;20466;-20
2021/06/07 20:06:09;;;;;;;29.42;18.70;;;20.80;66.20;;;;;;20905096;28;20518;-20
2021/06/07 20:16:10;;;;;;;24.92;18.25;;;20.80;66.60;;;;;;20901108;28;20040;-21
2021/06/07 20:26:11;;;;;;;19.88;17.85;;;20.80;67.30;;;;;;20899845;28;20110;-21
2021/06/07 20:36:14;;;;;;;17.73;15.50;;;20.90;67.30;;;;;;20899359;28;20025;-20
2021/06/07 20:46:15;;;;;;;18.02;14.70;;;20.90;68.20;;;;;;20903634;28;20565;-19
2021/06/07 20:56:17;;;;;;;15.97;13.80;;;21.00;68.10;;;;;;20920207;28;20058;-20
2021/06/07 21:06:18;;;;;;;21.58;14.48;;;21.00;68.50;;;;;;20915798;28;20036;-20
2021/06/07 21:16:19;;;;;;;20.15;14.98;;;21.00;68.60;;;;;;20915681;28;20647;-20
2021/06/07 21:26:20;;;;;;;17.98;14.23;;;21.00;68.30;;;;;;20915248;28;20801;-20
2021/06/07 21:36:22;;;;;;;13.88;12.13;;;21.10;68.00;;;;;;20913744;28;20053;-21
2021/06/07 21:46:22;;;;;;;13.82;12.43;;;21.10;68.40;;;;;;20912852;28;20024;-20
2021/06/07 21:56:23;;;;;;;15.27;12.50;;;21.00;68.30;;;;;;20909864;28;20492;-20
2021/06/07 22:06:23;;;;;;;16.42;12.95;;;21.10;68.70;;;;;;20910720;28;20091;-20
2021/06/07 22:16:24;;;;;;;14.65;12.85;;;21.10;67.80;;;;;;20910336;28;20028;-18
2021/06/07 22:26:25;;;;;;;15.30;12.73;;;21.00;68.00;;;;;;20910190;28;20112;-19
2021/06/07 22:36:26;;;;;;;24.13;13.70;;;21.00;68.00;;;;;;20906225;28;20029;-21
2021/06/07 22:46:27;;;;;;;28.25;16.33;;;21.00;67.90;;;;;;20905955;28;20028;-20
2021/06/07 22:56:28;;;;;;;17.83;15.20;;;20.90;68.90;;;;;;20905021;28;20381;-19
2021/06/07 23:06:29;;;;;;;17.10;15.38;;;20.90;68.40;;;;;;20904199;28;20078;-20
2021/06/07 23:16:29;;;;;;;17.23;14.50;;;20.90;68.10;;;;;;20904583;28;20091;-19
2021/06/07 23:26:30;;;;;;;16.58;14.88;;;20.80;67.90;;;;;;20904866;28;20596;-18
2021/06/07 23:36:31;;;;;;;22.67;14.82;;;20.80;67.50;;;;;;20904321;28;20029;-25
2021/06/07 23:46:32;;;;;;;16.00;13.68;;;20.80;67.10;;;;;;20903323;28;20112;-19
2021/06/07 23:56:33;;;;;;;18.45;14.38;;;20.80;67.00;;;;;;20903455;28;20094;-20
